Time;durP1;ratioP1;P1;durP2;ratioP2;P2;SDS_P1;SDS_P2;PMS_P1;PMS_P2;Temp;Humidity;BMP_temperature;BMP_pressure;BME280_temperature;BME280_humidity;BME280_pressure;Samples;Min_cycle;Max_cycle;Signal;HPM_P1;HPM_P2
2023/04/07 00:02:53;;;;;;;12.20;5.80;;;;;;;2.47;100.00;100353.62;109234;1256;70503;-70
2023/04/07 00:05:41;;;;;;;13.20;6.30;;;;;;;2.49;100.00;100353.03;109143;1256;73557;-69
2023/04/07 00:08:29;;;;;;;13.60;5.70;;;;;;;2.48;100.00;100351.45;109244;1256;57127;-69
2023/04/07 00:11:17;;;;;;;12.80;5.80;;;;;;;2.49;100.00;100349.70;109126;1256;58087;-71
2023/04/07 00:14:05;;;;;;;13.00;6.30;;;;;;;2.48;100.00;100348.31;109187;1256;72117;-70
2023/04/07 00:16:53;;;;;;;12.00;5.70;;;;;;;2.49;100.00;100341.29;109166;1256;66425;-68
2023/04/07 00:19:40;;;;;;;12.10;5.50;;;;;;;2.49;100.00;100337.23;109081;1256;73419;-68
2023/04/07 00:22:28;;;;;;;12.20;6.10;;;;;;;2.51;100.00;100335.60;109267;1256;57123;-70
2023/04/07 00:25:16;;;;;;;13.30;6.50;;;;;;;2.51;100.00;100334.04;109102;1256;57905;-70
2023/04/07 00:28:04;;;;;;;14.30;6.60;;;;;;;2.52;100.00;100330.99;109219;1256;72293;-70
2023/04/07 00:30:53;;;;;;;12.60;6.80;;;;;;;2.53;100.00;100333.77;109145;1256;67767;-69
2023/04/07 00:33:41;;;;;;;13.90;6.60;;;;;;;2.52;100.00;100337.48;109140;1257;72717;-71
2023/04/07 00:36:31;;;;;;;14.60;6.30;;;;;;;2.53;100.00;100339.21;109172;1257;57565;-69
2023/04/07 00:39:20;;;;;;;12.00;5.40;;;;;;;2.54;100.00;100335.29;109131;1256;58664;-71
2023/04/07 00:42:08;;;;;;;14.30;6.00;;;;;;;2.55;100.00;100333.34;109193;1256;69805;-68
2023/04/07 00:44:58;;;;;;;13.20;6.00;;;;;;;2.54;100.00;100330.04;109153;1255;66535;-68
2023/04/07 00:47:46;;;;;;;13.60;6.30;;;;;;;2.58;100.00;100327.98;109210;1257;72456;-69
2023/04/07 00:50:34;;;;;;;14.40;6.50;;;;;;;2.61;100.00;100321.38;109223;1256;56999;-69
2023/04/07 00:53:22;;;;;;;12.30;6.00;;;;;;;2.65;100.00;100314.17;109200;1255;59052;-69
2023/04/07 00:56:10;;;;;;;15.20;7.10;;;;;;;2.68;100.00;100312.16;109125;1256;70620;-70
2023/04/07 00:58:58;;;;;;;12.80;6.90;;;;;;;2.72;100.00;100318.29;109317;1257;66410;-68
2023/04/07 01:02:14;;;;;;;12.30;6.00;;;;;;;2.74;100.00;100318.54;109078;1257;72856;-65
2023/04/07 01:05:22;;;;;;;12.00;5.20;;;;;;;2.76;100.00;100318.86;109230;1256;58246;-67
2023/04/07 01:08:27;;;;;;;11.10;4.60;;;;;;;2.74;100.00;100314.51;109246;1257;58852;-68
2023/04/07 01:11:25;;;;;;;12.50;4.70;;;;;;;2.70;100.00;100305.23;108461;1256;1002107;-66
2023/04/07 01:14:17;;;;;;;11.20;5.20;;;;;;;2.72;100.00;100310.93;109091;1255;66786;-68
2023/04/07 01:17:14;;;;;;;11.50;5.20;;;;;;;2.70;100.00;100305.58;109237;1257;72656;-67
2023/04/07 01:20:09;;;;;;;12.00;5.60;;;;;;;2.71;100.00;100299.23;109235;1256;57804;-72
2023/04/07 01:23:04;;;;;;;13.60;6.30;;;;;;;2.72;100.00;100295.47;109178;1256;59068;-68
2023/04/07 01:26:28;;;;;;;14.30;6.40;;;;;;;2.72;100.00;100293.08;109205;1255;72229;-68
2023/04/07 01:29:46;;;;;;;15.00;6.40;;;;;;;2.73;100.00;100294.23;109122;1258;66645;-66
2023/04/07 01:32:36;;;;;;;14.40;6.40;;;;;;;2.74;100.00;100291.05;109174;1257;72578;-69
2023/04/07 01:35:31;;;;;;;13.30;6.10;;;;;;;2.75;100.00;100285.94;109175;1257;56899;-69
2023/04/07 01:38:20;;;;;;;13.60;6.60;;;;;;;2.76;100.00;100286.24;109197;1257;60486;-64
2023/04/07 01:41:09;;;;;;;16.00;7.30;;;;;;;2.76;100.00;100290.26;109239;1257;72235;-65
2023/04/07 01:43:59;;;;;;;14.90;6.70;;;;;;;2.78;100.00;100284.23;109267;1256;67699;-66
2023/04/07 01:46:49;;;;;;;12.20;5.60;;;;;;;2.81;100.00;100280.61;109105;1256;73960;-67
2023/04/07 01:49:39;;;;;;;13.50;5.80;;;;;;;2.83;100.00;100278.08;109189;1256;57832;-68
2023/04/07 01:52:28;;;;;;;10.90;4.50;;;;;;;2.82;100.00;100274.79;109203;1257;58706;-65
2023/04/07 01:55:16;;;;;;;11.90;4.90;;;;;;;2.80;100.00;100271.88;109144;1257;71884;-67
2023/04/07 01:58:21;;;;;;;12.50;5.60;;;;;;;2.78;100.00;100267.25;109217;1256;67478;-69
2023/04/07 02:01:09;;;;;;;15.90;6.90;;;;;;;2.78;100.00;100274.22;109194;1256;72337;-68
2023/04/07 02:04:32;;;;;;;13.60;5.70;;;;;;;2.80;100.00;100279.58;109212;1255;59950;-68
2023/04/07 02:07:41;;;;;;;16.20;6.30;;;;;;;2.78;100.00;100276.51;109264;1256;60343;-67
2023/04/07 02:10:34;;;;;;;10.50;4.50;;;;;;;2.78;100.00;100275.66;109201;1257;71118;-66
2023/04/07 02:13:22;;;;;;;14.40;6.30;;;;;;;2.76;100.00;100274.67;109135;1255;68123;-68
2023/04/07 02:16:12;;;;;;;14.80;6.20;;;;;;;2.77;100.00;100277.26;109178;1257;72529;-67
2023/04/07 02:19:01;;;;;;;14.40;6.80;;;;;;;2.81;100.00;100277.10;109184;1257;57478;-66
2023/04/07 02:21:51;;;;;;;15.90;6.00;;;;;;;2.83;100.00;100278.78;109130;1256;58143;-68
2023/04/07 02:24:42;;;;;;;12.50;5.70;;;;;;;2.86;100.00;100282.64;109049;1257;72088;-69
2023/04/07 02:27:32;;;;;;;11.60;5.20;;;;;;;2.85;100.00;100277.60;109008;1257;68906;-66
2023/04/07 02:30:21;;;;;;;12.30;4.90;;;;;;;2.84;100.00;100281.73;109115;1257;73408;-67
2023/04/07 02:33:11;;;;;;;16.00;7.20;;;;;;;2.84;100.00;100281.72;109127;1257;60044;-68
2023/04/07 02:35:58;;;;;;;15.00;6.20;;;;;;;2.86;100.00;100280.40;109145;1257;58932;-68
2023/04/07 02:38:48;;;;;;;14.80;6.60;;;;;;;2.87;100.00;100277.33;109068;1257;70717;-67
2023/04/07 02:41:36;;;;;;;14.00;6.20;;;;;;;2.87;100.00;100278.74;108964;1257;192838;-69
2023/04/07 02:44:24;;;;;;;12.60;5.50;;;;;;;2.88;100.00;100275.58;109145;1257;72482;-66
2023/04/07 02:47:11;;;;;;;13.20;5.70;;;;;;;2.86;100.00;100271.96;109082;1257;56987;-66
2023/04/07 02:49:59;;;;;;;14.70;6.50;;;;;;;2.83;100.00;100271.90;109111;1257;59088;-68
2023/04/07 02:52:47;;;;;;;14.70;6.50;;;;;;;2.84;100.00;100277.66;109078;1260;70934;-68
2023/04/07 02:55:36;;;;;;;13.50;5.80;;;;;;;2.81;100.00;100273.90;109136;1256;67882;-66
2023/04/07 02:58:24;;;;;;;14.50;6.70;;;;;;;2.80;100.00;100279.58;109185;1256;72817;-65
2023/04/07 03:01:12;;;;;;;14.90;6.20;;;;;;;2.80;100.00;100283.61;109207;1256;56949;-65
2023/04/07 03:03:59;;;;;;;16.10;7.80;;;;;;;2.81;100.00;100283.04;109210;1257;61370;-70
2023/04/07 03:06:48;;;;;;;18.80;8.30;;;;;;;2.81;100.00;100277.25;109188;1257;72208;-70
2023/04/07 03:09:37;;;;;;;17.60;7.30;;;;;;;2.84;100.00;100274.52;109196;1256;67597;-68
2023/04/07 03:12:25;;;;;;;15.90;6.70;;;;;;;2.87;100.00;100271.92;109196;1256;73706;-68
2023/04/07 03:15:13;;;;;;;16.40;6.70;;;;;;;2.88;100.00;100271.71;109193;1256;57281;-69
2023/04/07 03:18:04;;;;;;;17.60;7.80;;;;;;;2.88;100.00;100268.70;109174;1260;60457;-68
2023/04/07 03:20:54;;;;;;;20.80;9.30;;;;;;;2.89;100.00;100267.29;109160;1257;71994;-67
2023/04/07 03:23:42;;;;;;;19.10;9.40;;;;;;;2.91;100.00;100268.27;109378;1256;68705;-67
2023/04/07 03:26:30;;;;;;;16.90;8.10;;;;;;;2.90;100.00;100269.31;109179;1256;72746;-66
2023/04/07 03:29:18;;;;;;;16.10;7.10;;;;;;;2.89;100.00;100263.06;109171;1256;57766;-69
2023/04/07 03:32:06;;;;;;;14.90;6.60;;;;;;;2.89;100.00;100266.77;109043;1257;60102;-66
2023/04/07 03:34:54;;;;;;;20.90;8.70;;;;;;;2.89;100.00;100266.90;109091;1256;70084;-68
2023/04/07 03:37:42;;;;;;;18.30;8.40;;;;;;;2.89;100.00;100267.79;109101;1257;67929;-65
2023/04/07 03:40:34;;;;;;;17.00;7.60;;;;;;;2.89;100.00;100263.75;109097;1257;71349;-64
2023/04/07 03:43:22;;;;;;;14.50;6.60;;;;;;;2.89;100.00;100262.88;109074;1256;57763;-64
2023/04/07 03:46:10;;;;;;;14.40;6.10;;;;;;;2.87;100.00;100259.64;109129;1256;60274;-66
2023/04/07 03:48:58;;;;;;;17.00;7.70;;;;;;;2.86;100.00;100258.82;109158;1257;72290;-65
2023/04/07 03:51:47;;;;;;;16.00;7.20;;;;;;;2.87;100.00;100263.67;109167;1256;66435;-67
2023/04/07 03:54:39;;;;;;;13.30;5.50;;;;;;;2.88;100.00;100260.83;109126;1256;70274;-69
2023/04/07 03:57:27;;;;;;;14.70;6.60;;;;;;;2.86;100.00;100262.85;108754;1260;58255;-70
2023/04/07 04:00:17;;;;;;;14.10;6.20;;;;;;;2.83;100.00;100261.21;109090;1259;59046;-69
2023/04/07 04:03:14;;;;;;;16.80;7.20;;;;;;;2.84;100.00;100265.02;108930;1258;72010;-68
2023/04/07 04:06:21;;;;;;;16.40;7.10;;;;;;;2.85;100.00;100271.49;108907;1259;68121;-68
2023/04/07 04:09:13;;;;;;;16.10;7.20;;;;;;;2.87;100.00;100272.09;108927;1259;72829;-70
2023/04/07 04:12:08;;;;;;;15.60;6.90;;;;;;;2.88;100.00;100265.04;108865;1259;57718;-70
2023/04/07 04:15:01;;;;;;;13.10;6.00;;;;;;;2.87;100.00;100271.38;108958;1259;60073;-67
2023/04/07 04:17:54;;;;;;;16.70;7.30;;;;;;;2.86;100.00;100277.38;107945;1262;1002284;-69
2023/04/07 04:20:47;;;;;;;17.10;7.30;;;;;;;2.88;100.00;100275.20;108592;1261;66889;-66
2023/04/07 04:23:36;;;;;;;15.10;6.30;;;;;;;2.90;100.00;100274.60;108739;1261;72838;-67
2023/04/07 04:26:25;;;;;;;14.40;7.00;;;;;;;2.92;100.00;100274.54;108748;1261;56985;-67
2023/04/07 04:29:16;;;;;;;13.80;6.10;;;;;;;2.91;100.00;100276.48;108985;1258;60194;-69
2023/04/07 04:32:04;;;;;;;15.60;6.50;;;;;;;2.91;100.00;100276.13;108994;1259;70966;-67
2023/04/07 04:34:53;;;;;;;18.50;8.00;;;;;;;2.93;100.00;100278.14;108993;1258;66490;-68
2023/04/07 04:37:45;;;;;;;14.70;6.80;;;;;;;2.98;100.00;100281.48;108611;1262;72744;-69
2023/04/07 04:40:35;;;;;;;13.70;6.80;;;;;;;3.01;100.00;100281.13;108605;1263;58379;-70
2023/04/07 04:43:23;;;;;;;14.60;6.10;;;;;;;3.03;100.00;100285.10;108613;1264;58759;-69
2023/04/07 04:46:12;;;;;;;14.30;6.20;;;;;;;3.02;100.00;100285.63;108600;1264;70649;-71
2023/04/07 04:49:10;;;;;;;13.20;6.10;;;;;;;3.04;100.00;100284.02;108556;1263;67957;-69
2023/04/07 04:51:59;;;;;;;14.50;6.80;;;;;;;3.03;100.00;100280.16;108713;1263;73119;-69
2023/04/07 04:54:56;;;;;;;13.30;5.60;;;;;;;3.04;100.00;100276.82;108633;1264;57507;-71
2023/04/07 04:57:46;;;;;;;14.00;6.30;;;;;;;3.02;100.00;100269.17;108576;1263;60413;-69
2023/04/07 05:00:38;;;;;;;13.30;6.10;;;;;;;2.99;100.00;100271.43;108662;1264;70791;-68
2023/04/07 05:03:28;;;;;;;15.30;6.70;;;;;;;3.02;100.00;100272.87;108544;1263;67822;-67
2023/04/07 05:06:18;;;;;;;16.10;6.80;;;;;;;3.05;100.00;100273.41;108622;1264;70613;-69
2023/04/07 05:09:07;;;;;;;16.20;7.20;;;;;;;3.08;100.00;100265.76;108836;1259;58614;-68
2023/04/07 05:12:03;;;;;;;12.70;5.60;;;;;;;3.12;100.00;100265.63;108826;1259;58731;-68
2023/04/07 05:14:53;;;;;;;12.50;5.40;;;;;;;3.12;100.00;100262.13;108833;1259;72283;-68
2023/04/07 05:17:41;;;;;;;13.60;6.20;;;;;;;3.09;100.00;100264.32;109018;1258;66578;-67
2023/04/07 05:20:30;;;;;;;13.50;6.20;;;;;;;3.12;100.00;100265.98;109025;1256;72868;-70
2023/04/07 05:23:18;;;;;;;13.40;6.20;;;;;;;3.12;100.00;100267.88;109086;1256;57424;-67
2023/04/07 05:26:08;;;;;;;14.90;6.70;;;;;;;3.13;100.00;100268.34;109023;1256;59083;-66
2023/04/07 05:28:56;;;;;;;14.20;6.60;;;;;;;3.17;100.00;100272.21;108991;1258;71597;-70
2023/04/07 05:31:44;;;;;;;13.60;6.20;;;;;;;3.19;100.00;100275.11;108943;1259;66446;-69
2023/04/07 05:34:34;;;;;;;14.00;6.50;;;;;;;3.20;100.00;100276.33;108946;1258;72417;-67
2023/04/07 05:37:22;;;;;;;13.80;5.60;;;;;;;3.21;100.00;100276.44;108955;1258;57955;-68
2023/04/07 05:40:11;;;;;;;12.60;5.60;;;;;;;3.21;100.00;100272.91;108156;1258;1002394;-64
2023/04/07 05:42:59;;;;;;;15.70;7.00;;;;;;;3.23;100.00;100274.06;109079;1258;72475;-70
2023/04/07 05:45:49;;;;;;;13.90;6.10;;;;;;;3.25;100.00;100270.65;109000;1258;68653;-68
2023/04/07 05:48:40;;;;;;;13.90;6.20;;;;;;;3.25;100.00;100271.34;109039;1257;71160;-77
2023/04/07 05:51:30;;;;;;;12.40;6.00;;;;;;;3.26;100.00;100267.96;109013;1257;57259;-80
2023/04/07 05:54:43;;;;;;;14.00;6.10;;;;;;;3.31;100.00;100263.34;109205;1259;59174;-82
2023/04/07 05:57:39;;;;;;;13.50;6.30;;;;;;;3.37;100.00;100263.08;107101;1263;1002487;-65
2023/04/07 06:00:30;;;;;;;12.00;6.10;;;;;;;3.40;100.00;100273.14;108741;1261;65310;-63
2023/04/07 06:03:24;;;;;;;13.80;5.70;;;;;;;3.41;100.00;100272.54;108848;1261;73406;-69
2023/04/07 06:06:21;;;;;;;13.70;6.10;;;;;;;3.45;100.00;100271.69;108852;1260;57388;-65
2023/04/07 06:09:09;;;;;;;14.90;6.40;;;;;;;3.49;100.00;100272.41;108809;1260;60484;-66
2023/04/07 06:12:00;;;;;;;13.70;6.40;;;;;;;3.51;100.00;100278.80;108787;1260;72281;-67
2023/04/07 06:14:55;;;;;;;14.60;6.60;;;;;;;3.52;100.00;100278.20;108748;1260;67893;-65
2023/04/07 06:17:44;;;;;;;14.60;5.80;;;;;;;3.57;100.00;100282.70;108857;1261;73408;-67
2023/04/07 06:20:32;;;;;;;14.00;6.10;;;;;;;3.61;100.00;100294.50;108785;1260;56926;-67
2023/04/07 06:23:20;;;;;;;15.60;6.20;;;;;;;3.64;100.00;100294.19;108870;1260;59213;-64
2023/04/07 06:26:11;;;;;;;13.50;5.50;;;;;;;3.67;100.00;100298.59;108804;1260;70990;-67
2023/04/07 06:29:00;;;;;;;15.70;7.00;;;;;;;3.69;100.00;100295.16;108867;1260;67598;-66
2023/04/07 06:31:48;;;;;;;16.70;7.40;;;;;;;3.71;100.00;100294.91;108809;1261;71595;-67
2023/04/07 06:34:36;;;;;;;13.90;6.20;;;;;;;3.71;100.00;100286.83;108897;1260;59441;-70
2023/04/07 06:37:24;;;;;;;12.10;5.90;;;;;;;3.70;100.00;100286.17;108833;1260;58847;-68
2023/04/07 06:40:14;;;;;;;11.80;5.40;;;;;;;3.72;100.00;100283.11;105897;1260;1003054;-70
2023/04/07 06:43:02;;;;;;;13.20;6.10;;;;;;;3.70;100.00;100277.77;108884;1260;66452;-67
2023/04/07 06:45:59;;;;;;;13.30;5.90;;;;;;;3.71;100.00;100285.94;108770;1260;71162;-67
2023/04/07 06:48:48;;;;;;;13.00;5.60;;;;;;;3.73;100.00;100293.58;108864;1260;58657;-67
2023/04/07 06:51:36;;;;;;;11.00;4.80;;;;;;;3.77;100.00;100287.64;108830;1260;59140;-69
2023/04/07 06:54:24;;;;;;;12.10;4.70;;;;;;;3.80;100.00;100292.77;108730;1260;70977;-69
2023/04/07 06:57:14;;;;;;;12.20;5.40;;;;;;;3.82;100.00;100293.86;108829;1261;65985;-72
2023/04/07 07:00:06;;;;;;;10.00;4.20;;;;;;;3.83;100.00;100286.79;108706;1260;72714;-72
2023/04/07 07:02:58;;;;;;;13.50;6.10;;;;;;;3.83;100.00;100287.72;108727;1260;60030;-67
2023/04/07 07:05:48;;;;;;;14.50;6.10;;;;;;;3.86;100.00;100294.95;108840;1260;58760;-66
2023/04/07 07:08:37;;;;;;;16.90;7.10;;;;;;;3.89;100.00;100293.39;108974;1260;70659;-64
2023/04/07 07:11:26;;;;;;;15.80;6.20;;;;;;;3.92;100.00;100286.73;108956;1260;67683;-66
2023/04/07 07:14:13;;;;;;;17.20;7.30;;;;;;;3.92;100.00;100286.91;108953;1260;72842;-64
2023/04/07 07:17:04;;;;;;;15.30;7.30;;;;;;;3.95;100.00;100287.51;108796;1260;57788;-68
2023/04/07 07:19:53;;;;;;;16.10;6.10;;;;;;;3.98;100.00;100288.74;108843;1260;59187;-68
2023/04/07 07:22:41;;;;;;;15.10;6.50;;;;;;;4.00;100.00;100292.16;108928;1260;72723;-71
2023/04/07 07:25:29;;;;;;;14.40;6.40;;;;;;;4.07;100.00;100296.80;108957;1260;67737;-68
2023/04/07 07:28:20;;;;;;;14.90;6.80;;;;;;;4.13;100.00;100303.17;108897;1260;72447;-66
2023/04/07 07:31:13;;;;;;;16.00;7.20;;;;;;;4.15;100.00;100304.98;108837;1260;58285;-67
2023/04/07 07:34:01;;;;;;;13.20;5.80;;;;;;;4.19;100.00;100306.92;108881;1260;58762;-72
2023/04/07 07:36:50;;;;;;;14.40;6.30;;;;;;;4.24;100.00;100310.19;108763;1262;71932;-77
2023/04/07 07:39:38;;;;;;;14.20;6.70;;;;;;;4.31;100.00;100312.52;108756;1261;66716;-72
2023/04/07 07:42:26;;;;;;;16.20;7.30;;;;;;;4.37;100.00;100318.00;108848;1261;71448;-65
2023/04/07 07:45:16;;;;;;;16.60;7.80;;;;;;;4.43;100.00;100322.45;108689;1261;57566;-64
2023/04/07 07:48:04;;;;;;;15.20;7.20;;;;;;;4.45;100.00;100323.06;108850;1261;59240;-68
2023/04/07 07:50:55;;;;;;;14.20;6.50;;;;;;;4.49;100.00;100321.27;108785;1262;71987;-67
2023/04/07 07:53:44;;;;;;;13.50;6.50;;;;;;;4.51;100.00;100317.88;108933;1261;68065;-70
2023/04/07 07:56:32;;;;;;;15.70;6.90;;;;;;;4.51;100.00;100321.91;108839;1261;72425;-68
2023/04/07 07:59:20;;;;;;;14.00;6.30;;;;;;;4.55;100.00;100321.55;108751;1261;59450;-67
2023/04/07 08:02:09;;;;;;;13.50;6.20;;;;;;;4.54;100.00;100319.14;108783;1261;60321;-68
2023/04/07 08:04:57;;;;;;;13.20;6.00;;;;;;;4.54;100.00;100321.63;108814;1261;71792;-65
2023/04/07 08:07:46;;;;;;;11.80;5.70;;;;;;;4.50;100.00;100324.08;108896;1260;67895;-63
2023/04/07 08:10:34;;;;;;;14.40;6.90;;;;;;;4.48;100.00;100323.30;108909;1260;71300;-66
2023/04/07 08:13:22;;;;;;;13.00;6.20;;;;;;;4.48;100.00;100328.94;108918;1260;56995;-66
2023/04/07 08:16:10;;;;;;;11.50;5.90;;;;;;;4.49;100.00;100329.40;108903;1260;57910;-66
2023/04/07 08:18:58;;;;;;;13.10;6.20;;;;;;;4.52;100.00;100324.33;108849;1260;73018;-65
2023/04/07 08:21:47;;;;;;;13.10;6.40;;;;;;;4.55;100.00;100323.11;108902;1260;67739;-66
2023/04/07 08:24:34;;;;;;;14.40;6.10;;;;;;;4.56;100.00;100320.05;108856;1260;72631;-65
2023/04/07 08:27:22;;;;;;;14.50;6.90;;;;;;;4.59;100.00;100318.35;108905;1260;59535;-63
2023/04/07 08:30:10;;;;;;;20.40;10.30;;;;;;;4.75;100.00;100322.49;108858;1260;60424;-65
2023/04/07 08:32:58;;;;;;;14.40;7.20;;;;;;;4.89;100.00;100315.64;108918;1260;71257;-66
2023/04/07 08:35:46;;;;;;;15.60;7.30;;;;;;;5.04;100.00;100316.15;108834;1260;67672;-66
2023/04/07 08:38:35;;;;;;;15.30;7.00;;;;;;;5.15;100.00;100316.64;108883;1260;73227;-65
2023/04/07 08:41:36;;;;;;;16.70;7.50;;;;;;;5.20;99.86;100319.23;108884;1260;58359;-66
2023/04/07 08:44:27;;;;;;;16.10;7.20;;;;;;;5.37;100.00;100318.89;108785;1262;59068;-66
2023/04/07 08:47:16;;;;;;;15.60;6.80;;;;;;;5.50;99.45;100317.84;108884;1260;69931;-67
2023/04/07 08:50:08;;;;;;;15.80;8.00;;;;;;;5.52;98.16;100317.91;109018;1260;67651;-65
2023/04/07 08:52:59;;;;;;;14.30;5.90;;;;;;;5.56;97.74;100320.02;108896;1260;71421;-66
2023/04/07 08:55:47;;;;;;;13.10;5.50;;;;;;;5.59;98.01;100319.48;108901;1260;57943;-69
2023/04/07 08:58:36;;;;;;;16.20;9.00;;;;;;;5.57;96.98;100319.21;108926;1260;58888;-66
2023/04/07 09:01:25;;;;;;;17.80;8.70;;;;;;;5.50;96.19;100314.82;108930;1260;72013;-63
2023/04/07 09:04:13;;;;;;;16.20;7.80;;;;;;;5.51;96.67;100316.23;108816;1260;68109;-65
2023/04/07 09:07:01;;;;;;;14.40;6.80;;;;;;;5.53;95.93;100322.44;108885;1260;71494;-67
2023/04/07 09:09:49;;;;;;;16.50;7.60;;;;;;;5.52;96.12;100321.80;108840;1260;56961;-66
2023/04/07 09:12:37;;;;;;;18.70;9.00;;;;;;;5.52;95.68;100325.14;108936;1261;60295;-64
2023/04/07 09:15:30;;;;;;;17.20;8.80;;;;;;;5.53;96.50;100322.10;109004;1260;72680;-74
2023/04/07 09:18:18;;;;;;;16.50;8.20;;;;;;;5.63;96.58;100322.06;108912;1260;66772;-73
2023/04/07 09:21:07;;;;;;;16.10;7.60;;;;;;;5.72;96.15;100317.02;108875;1260;72307;-74
2023/04/07 09:23:58;;;;;;;14.90;7.20;;;;;;;5.80;95.75;100318.34;108847;1260;59640;-66
2023/04/07 09:26:46;;;;;;;17.40;8.80;;;;;;;5.86;94.80;100309.58;109018;1260;60205;-64
2023/04/07 09:29:34;;;;;;;16.30;8.00;;;;;;;5.88;94.42;100303.50;108969;1260;72146;-67
2023/04/07 09:32:40;;;;;;;18.00;9.00;;;;;;;5.90;94.55;100301.44;108816;1260;67886;-64
2023/04/07 09:35:28;;;;;;;18.10;9.60;;;;;;;6.03;94.07;100294.23;108860;1260;72432;-66
2023/04/07 09:38:16;;;;;;;20.30;9.90;;;;;;;6.15;93.78;100294.11;108883;1260;59399;-66
2023/04/07 09:41:13;;;;;;;16.40;8.10;;;;;;;6.29;94.13;100297.23;108884;1260;61114;-67
2023/04/07 09:44:01;;;;;;;18.30;8.70;;;;;;;6.43;93.61;100296.81;108937;1260;71995;-65
2023/04/07 09:46:58;;;;;;;16.70;8.60;;;;;;;6.54;92.88;100294.23;108803;1260;67845;-65
2023/04/07 09:49:52;;;;;;;18.60;9.10;;;;;;;6.63;91.95;100292.11;108894;1260;72840;-67
2023/04/07 09:52:50;;;;;;;17.40;8.60;;;;;;;6.76;91.24;100291.89;108833;1260;57969;-70
2023/04/07 09:55:40;;;;;;;17.60;8.20;;;;;;;6.84;90.43;100286.50;108993;1260;60012;-64
2023/04/07 09:58:28;;;;;;;21.70;10.70;;;;;;;6.88;90.72;100285.73;108941;1260;72086;-66
2023/04/07 10:01:16;;;;;;;20.30;10.10;;;;;;;6.89;90.29;100286.42;108829;1260;66391;-64
2023/04/07 10:04:07;;;;;;;17.90;8.70;;;;;;;6.92;90.77;100290.27;108888;1260;72782;-66
2023/04/07 10:06:57;;;;;;;17.30;8.10;;;;;;;6.93;89.84;100292.17;108943;1259;59388;-65
2023/04/07 10:09:44;;;;;;;18.60;9.20;;;;;;;7.00;89.68;100291.38;108837;1259;60419;-67
2023/04/07 10:12:36;;;;;;;15.80;8.10;;;;;;;7.17;89.68;100295.70;108869;1258;72983;-66
2023/04/07 10:15:27;;;;;;;19.20;8.30;;;;;;;7.33;89.13;100296.85;109002;1259;67800;-68
2023/04/07 10:18:19;;;;;;;19.10;8.60;;;;;;;7.47;87.85;100294.24;108797;1259;71244;-65
2023/04/07 10:21:09;;;;;;;15.40;8.20;;;;;;;7.55;86.63;100301.31;109008;1259;56961;-66
2023/04/07 10:24:33;;;;;;;16.40;8.50;;;;;;;7.68;86.56;100300.38;109020;1259;60149;-65
2023/04/07 10:27:34;;;;;;;15.40;8.30;;;;;;;7.99;84.38;100300.37;109020;1259;72143;-65
2023/04/07 10:30:27;;;;;;;16.80;8.60;;;;;;;8.24;83.63;100297.77;108873;1259;68922;-67
2023/04/07 10:33:17;;;;;;;15.70;8.60;;;;;;;8.39;82.85;100298.77;108022;1259;1002218;-64
2023/04/07 10:36:06;;;;;;;15.60;8.10;;;;;;;8.42;82.14;100299.41;108916;1259;57797;-63
2023/04/07 10:39:06;;;;;;;21.20;10.70;;;;;;;8.40;82.40;100292.64;107552;1259;1003503;-63
2023/04/07 10:41:54;;;;;;;18.10;9.70;;;;;;;8.35;82.19;100295.11;108883;1261;72996;-66
2023/04/07 10:44:42;;;;;;;17.00;8.60;;;;;;;8.31;81.63;100295.00;108991;1261;67826;-65
2023/04/07 10:47:31;;;;;;;14.30;7.70;;;;;;;8.30;81.52;100294.70;108978;1260;71118;-67
2023/04/07 10:50:21;;;;;;;17.00;9.30;;;;;;;8.28;81.67;100292.38;108963;1260;56904;-65
2023/04/07 10:53:13;;;;;;;16.70;9.20;;;;;;;8.23;81.93;100291.84;108873;1260;60100;-64
2023/04/07 10:56:01;;;;;;;17.00;9.40;;;;;;;8.18;81.79;100294.77;108926;1260;72196;-67
2023/04/07 10:59:15;;;;;;;20.20;10.20;;;;;;;8.07;81.34;100300.39;108832;1260;68167;-66
2023/04/07 11:02:13;;;;;;;16.40;8.00;;;;;;;8.08;82.60;100298.77;108838;1260;72542;-65
2023/04/07 11:05:02;;;;;;;17.00;9.60;;;;;;;8.12;82.20;100300.05;109007;1260;58079;-65
2023/04/07 11:07:54;;;;;;;16.00;9.00;;;;;;;8.16;82.52;100304.75;108846;1260;58737;-66
2023/04/07 11:10:47;;;;;;;17.80;9.00;;;;;;;8.16;81.89;100302.27;108897;1260;70006;-66
2023/04/07 11:13:45;;;;;;;16.20;9.20;;;;;;;8.18;82.24;100299.13;108946;1260;66536;-66
2023/04/07 11:16:42;;;;;;;17.70;9.10;;;;;;;8.24;82.20;100297.73;108776;1260;72395;-66
2023/04/07 11:19:32;;;;;;;18.00;10.00;;;;;;;8.30;80.82;100294.04;108837;1260;58337;-65
2023/04/07 11:22:20;;;;;;;18.80;9.20;;;;;;;8.31;80.76;100290.55;108978;1260;60413;-68
2023/04/07 11:25:22;;;;;;;15.60;9.00;;;;;;;8.42;80.77;100289.89;108086;1260;1002516;-65
2023/04/07 11:28:11;;;;;;;14.70;8.60;;;;;;;8.44;79.33;100289.05;108784;1260;66591;-67
2023/04/07 11:30:59;;;;;;;15.10;8.70;;;;;;;8.54;79.90;100292.30;108904;1261;72762;-65
2023/04/07 11:34:03;;;;;;;17.20;9.60;;;;;;;8.76;79.52;100287.29;108785;1260;57943;-65
2023/04/07 11:36:51;;;;;;;15.60;9.50;;;;;;;9.12;78.67;100287.40;108968;1260;60938;-65
2023/04/07 11:39:39;;;;;;;14.20;7.70;;;;;;;9.48;76.81;100282.44;108964;1260;70048;-67
2023/04/07 11:42:38;;;;;;;14.40;8.20;;;;;;;9.76;75.33;100279.77;108965;1260;67856;-66
2023/04/07 11:45:26;;;;;;;14.80;7.50;;;;;;;10.18;74.95;100269.36;108853;1260;72401;-68
2023/04/07 11:48:32;;;;;;;15.80;8.40;;;;;;;10.51;72.82;100263.76;108881;1260;57645;-67
2023/04/07 11:51:22;;;;;;;17.30;8.80;;;;;;;10.89;71.79;100265.91;108839;1260;60225;-69
2023/04/07 11:54:10;;;;;;;15.40;8.80;;;;;;;11.20;70.28;100261.04;108886;1260;73277;-65
2023/04/07 11:57:00;;;;;;;15.80;8.50;;;;;;;11.53;69.73;100263.66;108993;1260;67163;-68
2023/04/07 11:59:49;;;;;;;15.70;8.30;;;;;;;11.76;67.66;100263.77;108910;1260;71558;-67
2023/04/07 12:02:37;;;;;;;15.30;7.40;;;;;;;11.80;65.24;100265.15;108993;1260;56870;-65
2023/04/07 12:05:41;;;;;;;18.20;7.90;;;;;;;11.79;64.50;100262.52;108978;1260;60062;-64
2023/04/07 12:08:58;;;;;;;13.50;7.90;;;;;;;11.90;65.35;100261.30;108949;1258;72448;-66
2023/04/07 12:11:49;;;;;;;15.50;9.30;;;;;;;12.10;63.97;100260.11;108564;1266;66564;-64
2023/04/07 12:14:36;;;;;;;16.00;8.50;;;;;;;12.17;63.59;100259.36;108458;1267;71100;-66
2023/04/07 12:17:26;;;;;;;15.60;9.40;;;;;;;12.12;62.74;100261.36;108446;1266;58139;-68
2023/04/07 12:20:15;;;;;;;13.80;8.00;;;;;;;12.12;63.21;100260.08;108345;1266;57752;-66
2023/04/07 12:23:03;;;;;;;16.90;8.30;;;;;;;12.30;63.45;100262.05;108468;1267;70710;-69
2023/04/07 12:25:51;;;;;;;15.40;8.70;;;;;;;12.45;63.21;100257.25;108501;1267;65435;-66
2023/04/07 12:28:39;;;;;;;16.10;8.20;;;;;;;12.48;61.79;100257.92;108551;1267;71688;-64
2023/04/07 12:31:27;;;;;;;15.40;8.20;;;;;;;12.40;61.26;100261.74;108323;1267;56942;-63
2023/04/07 12:34:16;;;;;;;15.60;8.30;;;;;;;12.30;60.96;100261.86;108381;1266;59180;-66
2023/04/07 12:37:03;;;;;;;14.90;8.50;;;;;;;12.15;61.46;100263.05;108544;1267;72281;-66
2023/04/07 12:39:51;;;;;;;14.50;8.40;;;;;;;11.98;61.84;100266.35;108440;1267;66850;-68
2023/04/07 12:42:39;;;;;;;17.20;8.40;;;;;;;11.78;62.04;100262.05;108426;1267;73358;-63
2023/04/07 12:45:29;;;;;;;16.00;8.30;;;;;;;11.54;62.11;100260.05;108556;1267;58224;-66
2023/04/07 12:48:17;;;;;;;18.40;7.90;;;;;;;11.41;63.29;100258.94;108623;1259;59967;-67
2023/04/07 12:51:05;;;;;;;14.80;8.50;;;;;;;11.38;63.77;100257.94;108822;1259;72205;-65
2023/04/07 12:53:53;;;;;;;15.90;9.30;;;;;;;11.35;63.50;100263.15;108774;1262;66406;-65
2023/04/07 12:56:43;;;;;;;18.10;8.80;;;;;;;11.28;63.31;100262.92;108705;1262;73005;-66
2023/04/07 12:59:31;;;;;;;16.30;8.70;;;;;;;11.23;63.83;100263.27;108771;1261;58184;-65